createdAt,value
2018-01-06T20:13:09.066Z,40.30
2018-01-06T20:15:38.335Z,43.73
2018-01-06T20:18:06.486Z,41.90
2018-01-06T20:20:36.944Z,41.90
2018-01-06T20:23:05.119Z,41.10
2018-01-06T20:25:33.557Z,45.53
2018-01-06T20:28:02.598Z,49.73
2018-01-06T20:30:32.042Z,44.80
2018-01-06T20:33:00.192Z,52.67
2018-01-06T20:35:28.361Z,59.93
2018-01-06T20:37:56.541Z,49.80
2018-01-06T20:40:25.644Z,46.23
2018-01-06T20:42:54.022Z,44.40
2018-01-06T20:45:23.608Z,59.03
2018-01-06T20:47:52.088Z,51.30
2018-01-06T20:50:20.261Z,54.60
2018-01-06T20:52:48.397Z,47.70
2018-01-06T20:55:17.331Z,47.80
2018-01-06T20:57:45.472Z,53.20
2018-01-06T21:00:14.416Z,45.47
2018-01-06T21:02:42.542Z,52.50
2018-01-06T21:05:10.705Z,55.70
2018-01-06T21:07:39.617Z,59.37
2018-01-06T21:10:07.805Z,54.57
2018-01-06T21:12:35.956Z,51.70
2018-01-06T21:15:04.904Z,51.73
2018-01-06T21:17:33.071Z,57.63
2018-01-06T21:20:01.243Z,56.90
2018-01-06T21:22:30.209Z,61.10
2018-01-06T21:24:58.383Z,65.47
2018-01-06T21:27:26.531Z,62.13
2018-01-06T21:29:54.769Z,61.90
2018-01-06T21:32:22.918Z,47.70
2018-01-06T21:34:51.089Z,50.60
2018-01-06T21:37:19.240Z,41.97
2018-01-06T21:39:47.433Z,43.07
2018-01-06T21:42:16.412Z,40.90
2018-01-06T21:44:44.581Z,43.83
2018-01-06T21:47:12.750Z,32.97
2018-01-06T21:49:41.663Z,35.20
2018-01-06T21:52:09.820Z,37.47
2018-01-06T21:54:37.983Z,30.50
2018-01-06T21:57:06.933Z,31.43
2018-01-06T21:59:35.118Z,27.90
2018-01-06T22:02:03.280Z,30.97
2018-01-06T22:04:31.418Z,27.87
2018-01-06T22:06:59.589Z,32.90
2018-01-06T22:09:27.752Z,26.80
2018-01-06T22:11:56.676Z,20.33
2018-01-06T22:14:24.841Z,22.60
2018-01-06T22:16:53.304Z,25.10
2018-01-06T22:19:22.316Z,24.13
2018-01-06T22:21:50.589Z,25.03
2018-01-06T22:24:18.761Z,23.83
2018-01-06T22:26:46.984Z,23.70
2018-01-06T22:29:15.925Z,19.10
2018-01-06T22:31:44.132Z,24.93
2018-01-06T22:34:12.293Z,26.63
2018-01-06T22:36:40.467Z,21.00
2018-01-06T22:39:08.623Z,23.10
2018-01-06T22:41:36.803Z,21.33
2018-01-06T22:44:05.052Z,21.27
2018-01-06T22:46:33.974Z,25.03
2018-01-06T22:49:02.165Z,23.83
2018-01-06T22:51:30.323Z,17.30
2018-01-06T22:53:58.461Z,15.53
2018-01-06T22:56:27.391Z,13.60
2018-01-06T22:58:55.537Z,11.97
2018-01-06T23:01:24.054Z,9.80
2018-01-06T23:03:52.199Z,11.07
2018-01-06T23:06:20.374Z,11.43
2018-01-06T23:08:48.548Z,13.70
2018-01-06T23:11:16.722Z,11.20
2018-01-06T23:13:44.974Z,12.13
2018-01-06T23:16:13.171Z,13.97
2018-01-06T23:18:42.082Z,13.90
2018-01-06T23:21:10.244Z,15.07
2018-01-06T23:23:38.396Z,11.37
2018-01-06T23:26:06.618Z,13.90
2018-01-06T23:28:34.753Z,14.10
2018-01-06T23:31:03.772Z,14.50
2018-01-06T23:33:31.951Z,16.13
2018-01-06T23:36:00.134Z,11.07
2018-01-06T23:38:28.281Z,13.57
2018-01-06T23:40:56.480Z,15.13
2018-01-06T23:43:25.740Z,14.40
2018-01-06T23:45:54.652Z,13.60
2018-01-06T23:48:22.788Z,15.90
2018-01-06T23:50:50.957Z,15.70
2018-01-06T23:53:19.088Z,12.43
2018-01-06T23:55:47.249Z,14.50
2018-01-06T23:58:15.383Z,14.73
